TFM - Tactical Decision Aid
ID: Runway Winds: CIG/VIS Threshold:

KSAN - San Diego Intl Arpt, CA, US

Updated at: 1158 UTC 15 Jul 2020
Latest TAF at: 1120 UTC 15 Jul 2020

TAF Board

Time1151Z 15/12Z 15/13Z 15/14Z 15/15Z 15/16Z 15/17Z 15/18Z 15/19Z 15/20Z 15/21Z 15/22Z 15/23Z 16/00Z>>
Type OBS PRVL PRVL PRVL PRVL PRVL PRVL PRVL PRVL PRVL PRVL PRVL PRVL PRVL
VIS 10 >6 >6 >6 >6 >6 >6 >6 >6 >6 >6 >6 >6 >6
CIG 21 22 22 22 22 22 22 -- -- -- -- -- -- --
Cover OVC BKN BKN BKN BKN BKN BKN SCT SCT SCT SCT SCT SCT SCT
FltCat MVFR MVFR MVFR MVFR MVFR MVFR MVFR VFR VFR VFR VFR VFR VFR VFR
WX -- -- -- -- -- -- -- -- -- -- -- -- -- --
WDir 30 VRB VRB VRB VRB VRB VRB 270 270 270 270 270 270 270
WSpd 4 3 3 3 3 3 3 10 10 10 10 10 10 10
WGst -- -- -- -- -- -- -- -- -- -- -- -- -- --

TDA Impact Legend

  None Marginal Slight Moderate High
Visibility (sm) >5 3≤X≤5 2≤X<3 1≤X<2 <1
Ceiling (100 ft) >30 10≤X≤30 8≤X<10 4≤X<8 <4
Wind Speed (kt) <15 15≤X<25 25≤X<30 ≥30
Wind Gust (kt) <15 15≤X<25 25≤X<35 ≥35
Weather No Wx Reported VCTS -TS,-FZRA TS,FZRA +TS,+FZRA
TAF
KSAN 151120Z 1512/1618 VRB03KT P6SM BKN022
  FM151800 27010KT P6SM SCT018
  FM160300 26005KT P6SM SCT020
  FM160600 VRB04KT P6SM BKN020


METAR
KSAN 151151Z 03004KT 10SM OVC021 21/14 A2995 RMK AO2 SLP141 T02060144 10211 20194 55005
KSAN 151051Z 00000KT 10SM BKN021 21/15 A2994 RMK AO2 SLP139 T02060150
KSAN 150951Z 31003KT 10SM BKN022 20/14 A2995 RMK AO2 SLP141 T02000144
KSAN 150851Z 26004KT 10SM OVC021 21/15 A2996 RMK AO2 SLP145 T02060150 58006

Radar Display
Forecast Discussion